Niedercorn, Luxembourg
Current Conditions -  °F | °C
As of 9:20 AM on Sunday 23 Nov 2014 (Local Time) from ELLX Reporting Station
Clear Clear  
Wind Chill: 43°   Ceiling: Unl
Heat Index: 43°   Visibility: 2.5mi
Dew Point: 43°   Wind: 3mph
Humidity: 100%   Direction: NA
Pressure: 30.09"   Gusts: NA
Location:  49.54°N, 5.89°E
Report Text: ELLX 230820Z VRB03KT 4000 NSC 06/06 Q1019 NOSIG
Loading
Personal Weather Stations






























Interactive Weather Map New forecast layout! Learn more

10-Day Weather Forecast

Advertisements
Track Severe Weather on mobile